METAR Data
IDs: Format: Raw Decoded Include TAF

Data at: 0039 UTC 25 Apr 2019

PAGH 242356Z AUTO 10009KT 10SM BKN035 OVC046 02/M04 A3021 RMK AO2 SLP236 60000 T00171044 10022 20000 51008 FZRANO
PAGH 242256Z AUTO 13011KT 10SM OVC033 02/M04 A3020 RMK AO2 SLP234 T00171044 FZRANO
PAGH 242156Z AUTO 11009KT 10SM OVC075 02/M04 A3019 RMK AO2 SLP231 T00171039 FZRANO
PAGH 242056Z AUTO 12008KT 10SM FEW023 01/M03 A3018 RMK AO2 UPE08 SLP228 P0000 60000 T00111033 53009 FZRANO
PAGH 242006Z AUTO 13008KT 10SM UP SCT021 BKN033 01/M04 A3017 RMK AO2 P0000 FZRANO
PAGH 241956Z AUTO 14007KT 10SM UP BKN021 BKN033 01/M04 A3017 RMK AO2 RAB36E56UPB56 SLP222 P0000 T00061039 FZRANO
PAGH 241905Z AUTO 09005KT 10SM BKN030 OVC037 01/M04 A3016 RMK AO2 FZRANO
PAGH 241856Z AUTO 08006KT 10SM BKN029 OVC037 00/M04 A3016 RMK AO2 UPB24E43 SLP219 P0000 T00001039 FZRANO
PAGH 241853Z AUTO 08006KT 10SM BKN029 OVC035 00/M04 A3016 RMK AO2 UPB24E43 P0000 FZRANO
PAGH 241756Z AUTO 11010KT 10SM SCT035 00/M04 A3014 RMK AO2 SLP214 60000 T00001044 10000 21044 51017 FZRANO
PAGH 241656Z AUTO 09003KT 10SM BKN049 OVC070 M02/M05 A3013 RMK AO2 UPB33E47SNB21E31 SLP209 P0000 T10221050 FZRANO
PAGH 241556Z AUTO 00000KT 10SM FEW006 OVC060 M04/M07 A3011 RMK AO2 SLP204 T10391067 FZRANO
PAGH 241456Z AUTO 14005KT 10SM SCT050 OVC085 M04/M07 A3009 RMK AO2 SLP196 60000 T10391072 53015 FZRANO
PAGH 241356Z AUTO 00000KT 10SM OVC040 M04/M07 A3008 RMK AO2 SLP191 T10391072 FZRANO
PAGH 241256Z AUTO 00000KT 10SM SCT010 OVC041 M04/M06 A3005 RMK AO2 SNB1157E50 SLP184 P0000 T10391061 FZRANO
PAGH 241230Z AUTO 00000KT 3SM -SN BR BKN010 BKN018 OVC030 M04/M06 A3005 RMK AO2 SNB1157 P0000 FZRANO
PAGH 241224Z AUTO 00000KT 2SM -SN SCT012 BKN026 OVC030 M04/M07 A3005 RMK AO2 VIS 1V5 SNB1157 P0000 FZRANO
PAGH 241156Z AUTO 13004KT 9SM FEW020 OVC040 M04/M07 A3004 RMK AO2 SLP181 T10391072 11006 21039 51024 FZRANO
PAGH 241056Z AUTO 21005KT 10SM OVC044 M04/M07 A3002 RMK AO2 SLP173 T10391072 FZRANO
PAGH 240956Z AUTO 18004KT 10SM FEW048 OVC065 M04/M07 A3000 RMK AO2 SLP165 T10391072 FZRANO
PAGH 240856Z AUTO 19004KT 10SM SCT048 OVC060 M04/M07 A2997 RMK AO2 SLP157 T10391072 400221072 53021 FZRANO
PAGH 240756Z AUTO 20005KT 10SM OVC070 M03/M06 A2995 RMK AO2 SLP149 T10281061 FZRANO
PAGH 240656Z AUTO 21004KT 10SM BKN075 M02/M05 A2993 RMK AO2 SLP142 T10171050 FZRANO
PAGH 240556Z AUTO 22005KT 10SM OVC050 00/M04 A2991 RMK AO2 SLP136 T00001044 10022 20000 53016 FZRANO
PAGH 240456Z AUTO 00000KT 10SM SCT043 BKN050 OVC065 01/M05 A2989 RMK AO2 SLP130 T00061050 FZRANO
PAGH 240356Z AUTO 29004KT 10SM BKN043 BKN050 OVC060 01/M04 A2988 RMK AO2 SLP124 T00111044 FZRANO
PAGH 240256Z AUTO 26006KT 10SM FEW055 BKN070 02/M05 A2986 RMK AO2 SLP119 T00171050 53018 FZRANO
PAGH 240156Z AUTO 28007KT 10SM FEW075 02/M06 A2984 RMK AO2 SLP113 T00221061 FZRANO
PAGH 240056Z AUTO 27011KT 10SM OVC070 01/M06 A2983 RMK AO2 SLP107 T00111061 FZRANO
PAGH 232356Z AUTO 28007KT 10SM SCT070 SCT120 02/M06 A2981 RMK AO2 SLP101 T00171061 10017 21050 51014 FZRANO
PAGH 232256Z AUTO 27003KT 10SM CLR 02/M07 A2980 RMK AO2 SLP096 T00171067 FZRANO
PAGH 232156Z AUTO 24006KT 10SM CLR 00/M07 A2978 RMK AO2 SLP090 T00001067 FZRANO
PAGH 232056Z AUTO 28003KT 10SM CLR M02/M07 A2977 RMK AO2 SLP087 T10171072 51017 FZRANO
PAGH 231956Z AUTO 00000KT 10SM CLR M03/M08 A2975 RMK AO2 SLP082 T10281078 FZRANO
PAGH 231856Z AUTO 00000KT 10SM FEW080 M04/M08 A2973 RMK AO2 SLP076 T10391083 FZRANO
PAGH 231756Z AUTO 22005KT 10SM OVC060 M05/M09 A2972 RMK AO2 SLP069 T10501089 11039 21072 51020 FZRANO
PAGH 231656Z AUTO 00000KT 10SM BKN055 BKN070 M06/M09 A2970 RMK AO2 SLP065 T10561094 FZRANO
PAGH 231556Z AUTO 12003KT 10SM OVC060 M06/M09 A2968 RMK AO2 SLP056 T10611094 FZRANO
PAGH 231456Z AUTO 19006KT 10SM OVC070 M07/M10 A2965 RMK AO2 SLP048 T10671100 53020 FZRANO
PAGH 231356Z AUTO 18006KT 10SM OVC070 M07/M11 A2964 RMK AO2 SLP043 T10671106 FZRANO
PAGH 231256Z AUTO 19005KT 10SM OVC095 M07/M10 A2961 RMK AO2 SLP033 T10671100 FZRANO